sensor_id;sensor_type;location;lat;lon;timestamp;temperature;humidity
19044;DHT22;9654;52.302;8.120;2023-12-29T00:00:26;10.30;10.60
19044;DHT22;9654;52.302;8.120;2023-12-29T00:02:53;10.30;1.00
19044;DHT22;9654;52.302;8.120;2023-12-29T00:05:21;10.30;1.00
19044;DHT22;9654;52.302;8.120;2023-12-29T00:07:48;10.30;99.90
19044;DHT22;9654;52.302;8.120;2023-12-29T00:10:15;10.30;1.00
19044;DHT22;9654;52.302;8.120;2023-12-29T00:12:42;10.30;1.00
19044;DHT22;9654;52.302;8.120;2023-12-29T00:15:09;10.30;1.00
19044;DHT22;9654;52.302;8.120;2023-12-29T00:17:36;10.30;99.90
19044;DHT22;9654;52.302;8.120;2023-12-29T00:20:06;10.30;99.90
19044;DHT22;9654;52.302;8.120;2023-12-29T00:22:35;10.30;99.90
19044;DHT22;9654;52.302;8.120;2023-12-29T00:25:02;10.30;99.90
19044;DHT22;9654;52.302;8.120;2023-12-29T00:27:29;10.30;99.90
19044;DHT22;9654;52.302;8.120;2023-12-29T00:29:56;10.40;99.90
19044;DHT22;9654;52.302;8.120;2023-12-29T00:32:23;10.40;99.90
19044;DHT22;9654;52.302;8.120;2023-12-29T00:34:50;10.40;99.90
19044;DHT22;9654;52.302;8.120;2023-12-29T00:37:17;10.40;99.90
19044;DHT22;9654;52.302;8.120;2023-12-29T00:39:45;10.40;99.90
19044;DHT22;9654;52.302;8.120;2023-12-29T00:42:12;10.40;99.90
19044;DHT22;9654;52.302;8.120;2023-12-29T00:44:39;10.40;99.90
19044;DHT22;9654;52.302;8.120;2023-12-29T00:47:05;10.40;1.00
19044;DHT22;9654;52.302;8.120;2023-12-29T00:49:33;10.40;1.00
19044;DHT22;9654;52.302;8.120;2023-12-29T00:51:59;10.20;1.00
19044;DHT22;9654;52.302;8.120;2023-12-29T00:54:28;10.10;1.00
19044;DHT22;9654;52.302;8.120;2023-12-29T00:56:56;10.00;14.70
19044;DHT22;9654;52.302;8.120;2023-12-29T00:59:23;10.00;1.00
19044;DHT22;9654;52.302;8.120;2023-12-29T01:01:50;10.00;1.00
19044;DHT22;9654;52.302;8.120;2023-12-29T01:04:17;10.00;1.00
19044;DHT22;9654;52.302;8.120;2023-12-29T01:06:44;10.10;1.00
19044;DHT22;9654;52.302;8.120;2023-12-29T01:09:10;10.10;1.00
19044;DHT22;9654;52.302;8.120;2023-12-29T01:11:37;10.20;1.00
19044;DHT22;9654;52.302;8.120;2023-12-29T01:14:06;10.20;1.00
19044;DHT22;9654;52.302;8.120;2023-12-29T01:16:33;10.20;1.00
19044;DHT22;9654;52.302;8.120;2023-12-29T01:18:59;10.20;1.00
19044;DHT22;9654;52.302;8.120;2023-12-29T01:21:26;10.30;1.00
19044;DHT22;9654;52.302;8.120;2023-12-29T01:23:53;10.30;1.00
19044;DHT22;9654;52.302;8.120;2023-12-29T01:26:20;10.30;1.00
19044;DHT22;9654;52.302;8.120;2023-12-29T01:28:47;10.30;1.00
19044;DHT22;9654;52.302;8.120;2023-12-29T01:31:15;10.30;1.00
19044;DHT22;9654;52.302;8.120;2023-12-29T01:33:42;10.30;1.00
19044;DHT22;9654;52.302;8.120;2023-12-29T01:36:09;10.30;1.00
19044;DHT22;9654;52.302;8.120;2023-12-29T01:38:35;10.30;1.00
19044;DHT22;9654;52.302;8.120;2023-12-29T01:41:03;10.40;1.00
19044;DHT22;9654;52.302;8.120;2023-12-29T01:43:30;10.30;1.00
19044;DHT22;9654;52.302;8.120;2023-12-29T01:45:57;10.20;1.00
19044;DHT22;9654;52.302;8.120;2023-12-29T01:48:25;10.20;1.00
19044;DHT22;9654;52.302;8.120;2023-12-29T01:50:54;10.20;1.00
19044;DHT22;9654;52.302;8.120;2023-12-29T01:53:22;10.30;1.00
19044;DHT22;9654;52.302;8.120;2023-12-29T01:55:49;10.30;1.00
19044;DHT22;9654;52.302;8.120;2023-12-29T01:58:16;10.30;1.00
19044;DHT22;9654;52.302;8.120;2023-12-29T02:00:43;10.30;1.00
19044;DHT22;9654;52.302;8.120;2023-12-29T02:03:10;10.40;1.00
19044;DHT22;9654;52.302;8.120;2023-12-29T02:05:39;10.40;1.00
19044;DHT22;9654;52.302;8.120;2023-12-29T02:08:07;10.30;1.00
19044;DHT22;9654;52.302;8.120;2023-12-29T02:10:35;10.20;1.00
19044;DHT22;9654;52.302;8.120;2023-12-29T02:13:04;10.20;1.00
19044;DHT22;9654;52.302;8.120;2023-12-29T02:15:30;10.10;1.00
19044;DHT22;9654;52.302;8.120;2023-12-29T02:18:01;10.10;1.00
19044;DHT22;9654;52.302;8.120;2023-12-29T02:20:29;10.10;1.00
19044;DHT22;9654;52.302;8.120;2023-12-29T02:22:58;10.10;1.00
19044;DHT22;9654;52.302;8.120;2023-12-29T02:25:27;10.10;1.00
19044;DHT22;9654;52.302;8.120;2023-12-29T02:27:58;10.10;1.00
19044;DHT22;9654;52.302;8.120;2023-12-29T02:30:31;10.20;1.00
19044;DHT22;9654;52.302;8.120;2023-12-29T02:33:04;10.20;1.00
19044;DHT22;9654;52.302;8.120;2023-12-29T02:35:35;10.20;1.00
19044;DHT22;9654;52.302;8.120;2023-12-29T02:38:04;10.20;1.00
19044;DHT22;9654;52.302;8.120;2023-12-29T02:40:32;10.20;1.00
19044;DHT22;9654;52.302;8.120;2023-12-29T02:42:59;10.30;1.00
19044;DHT22;9654;52.302;8.120;2023-12-29T02:45:27;10.30;1.00
19044;DHT22;9654;52.302;8.120;2023-12-29T02:47:54;10.30;1.00
19044;DHT22;9654;52.302;8.120;2023-12-29T02:50:20;10.40;1.00
19044;DHT22;9654;52.302;8.120;2023-12-29T02:52:47;10.40;1.00
19044;DHT22;9654;52.302;8.120;2023-12-29T02:55:14;10.40;1.00
19044;DHT22;9654;52.302;8.120;2023-12-29T02:57:42;10.40;1.00
19044;DHT22;9654;52.302;8.120;2023-12-29T03:00:10;10.40;1.00
19044;DHT22;9654;52.302;8.120;2023-12-29T03:02:37;10.30;1.00
19044;DHT22;9654;52.302;8.120;2023-12-29T03:05:04;10.20;56.70
19044;DHT22;9654;52.302;8.120;2023-12-29T03:07:31;10.00;99.90
19044;DHT22;9654;52.302;8.120;2023-12-29T03:09:58;9.80;99.90
19044;DHT22;9654;52.302;8.120;2023-12-29T03:12:25;9.70;99.90
19044;DHT22;9654;52.302;8.120;2023-12-29T03:14:53;9.70;99.90
19044;DHT22;9654;52.302;8.120;2023-12-29T03:17:20;9.60;99.90
19044;DHT22;9654;52.302;8.120;2023-12-29T03:19:47;9.60;99.90
19044;DHT22;9654;52.302;8.120;2023-12-29T03:22:14;9.50;99.90
19044;DHT22;9654;52.302;8.120;2023-12-29T03:24:41;9.40;99.90
19044;DHT22;9654;52.302;8.120;2023-12-29T03:27:08;9.40;99.90
19044;DHT22;9654;52.302;8.120;2023-12-29T03:29:35;9.40;99.90
19044;DHT22;9654;52.302;8.120;2023-12-29T03:32:04;9.30;99.90
19044;DHT22;9654;52.302;8.120;2023-12-29T03:34:32;9.20;99.90
19044;DHT22;9654;52.302;8.120;2023-12-29T03:36:59;9.20;99.90
19044;DHT22;9654;52.302;8.120;2023-12-29T03:39:26;9.10;99.90
19044;DHT22;9654;52.302;8.120;2023-12-29T03:41:53;9.10;99.90
19044;DHT22;9654;52.302;8.120;2023-12-29T03:44:20;9.10;99.90
19044;DHT22;9654;52.302;8.120;2023-12-29T03:46:46;9.00;99.90
19044;DHT22;9654;52.302;8.120;2023-12-29T03:49:16;9.00;99.90
19044;DHT22;9654;52.302;8.120;2023-12-29T03:51:45;8.90;99.90
19044;DHT22;9654;52.302;8.120;2023-12-29T03:54:12;8.90;99.90
19044;DHT22;9654;52.302;8.120;2023-12-29T03:56:39;8.90;99.90
19044;DHT22;9654;52.302;8.120;2023-12-29T03:59:06;8.90;99.90
19044;DHT22;9654;52.302;8.120;2023-12-29T04:01:33;8.90;99.90
19044;DHT22;9654;52.302;8.120;2023-12-29T04:04:00;9.00;99.90
19044;DHT22;9654;52.302;8.120;2023-12-29T04:06:29;8.90;99.90
19044;DHT22;9654;52.302;8.120;2023-12-29T04:08:57;9.00;99.90
19044;DHT22;9654;52.302;8.120;2023-12-29T04:11:24;9.00;99.90
19044;DHT22;9654;52.302;8.120;2023-12-29T04:13:51;9.00;99.90
19044;DHT22;9654;52.302;8.120;2023-12-29T04:16:18;9.00;99.90
19044;DHT22;9654;52.302;8.120;2023-12-29T04:18:45;9.00;99.90
19044;DHT22;9654;52.302;8.120;2023-12-29T04:21:13;9.00;99.90
19044;DHT22;9654;52.302;8.120;2023-12-29T04:23:42;9.00;99.90
19044;DHT22;9654;52.302;8.120;2023-12-29T04:26:08;9.10;99.90
19044;DHT22;9654;52.302;8.120;2023-12-29T04:28:35;9.10;99.90
19044;DHT22;9654;52.302;8.120;2023-12-29T04:31:02;9.10;99.90
19044;DHT22;9654;52.302;8.120;2023-12-29T04:33:29;9.10;99.90
19044;DHT22;9654;52.302;8.120;2023-12-29T04:35:56;9.10;99.90
19044;DHT22;9654;52.302;8.120;2023-12-29T04:38:23;9.10;99.90
19044;DHT22;9654;52.302;8.120;2023-12-29T04:40:51;9.10;99.90
19044;DHT22;9654;52.302;8.120;2023-12-29T04:43:18;9.10;99.90
19044;DHT22;9654;52.302;8.120;2023-12-29T04:45:45;9.10;99.90
19044;DHT22;9654;52.302;8.120;2023-12-29T04:48:12;9.10;99.90
19044;DHT22;9654;52.302;8.120;2023-12-29T04:50:38;9.10;99.90
19044;DHT22;9654;52.302;8.120;2023-12-29T04:53:05;9.10;99.90
19044;DHT22;9654;52.302;8.120;2023-12-29T04:55:32;9.10;99.90
19044;DHT22;9654;52.302;8.120;2023-12-29T04:58:00;9.10;99.90
19044;DHT22;9654;52.302;8.120;2023-12-29T05:00:27;9.10;99.90
19044;DHT22;9654;52.302;8.120;2023-12-29T05:02:54;9.10;99.90
19044;DHT22;9654;52.302;8.120;2023-12-29T05:05:21;9.10;99.90
19044;DHT22;9654;52.302;8.120;2023-12-29T05:07:48;9.10;99.90
19044;DHT22;9654;52.302;8.120;2023-12-29T05:10:15;9.10;99.90
19044;DHT22;9654;52.302;8.120;2023-12-29T05:12:41;9.20;99.90
19044;DHT22;9654;52.302;8.120;2023-12-29T05:15:10;9.20;99.90
19044;DHT22;9654;52.302;8.120;2023-12-29T05:17:37;9.30;99.90
19044;DHT22;9654;52.302;8.120;2023-12-29T05:20:06;9.30;99.90
19044;DHT22;9654;52.302;8.120;2023-12-29T05:22:33;9.30;99.90
19044;DHT22;9654;52.302;8.120;2023-12-29T05:25:01;9.30;99.90
19044;DHT22;9654;52.302;8.120;2023-12-29T05:27:28;9.20;99.90
19044;DHT22;9654;52.302;8.120;2023-12-29T05:29:54;9.10;99.90
19044;DHT22;9654;52.302;8.120;2023-12-29T05:32:23;9.10;99.90
19044;DHT22;9654;52.302;8.120;2023-12-29T05:34:50;9.10;99.90
19044;DHT22;9654;52.302;8.120;2023-12-29T05:37:17;9.00;99.90
19044;DHT22;9654;52.302;8.120;2023-12-29T05:39:43;9.00;99.90
19044;DHT22;9654;52.302;8.120;2023-12-29T05:42:10;8.90;99.90
19044;DHT22;9654;52.302;8.120;2023-12-29T05:44:37;8.90;99.90
19044;DHT22;9654;52.302;8.120;2023-12-29T05:47:04;8.90;99.90
19044;DHT22;9654;52.302;8.120;2023-12-29T05:49:33;8.80;99.90
19044;DHT22;9654;52.302;8.120;2023-12-29T05:52:04;8.80;99.90
19044;DHT22;9654;52.302;8.120;2023-12-29T05:54:31;8.80;99.90
19044;DHT22;9654;52.302;8.120;2023-12-29T05:56:58;8.70;99.90
19044;DHT22;9654;52.302;8.120;2023-12-29T05:59:25;8.70;99.90
19044;DHT22;9654;52.302;8.120;2023-12-29T06:01:52;8.70;99.90
19044;DHT22;9654;52.302;8.120;2023-12-29T06:04:19;8.70;99.90
19044;DHT22;9654;52.302;8.120;2023-12-29T06:06:47;8.60;99.90
19044;DHT22;9654;52.302;8.120;2023-12-29T06:09:14;8.70;99.90
19044;DHT22;9654;52.302;8.120;2023-12-29T06:11:41;8.70;99.90
19044;DHT22;9654;52.302;8.120;2023-12-29T06:14:08;8.60;99.90
19044;DHT22;9654;52.302;8.120;2023-12-29T06:16:35;8.70;99.90
19044;DHT22;9654;52.302;8.120;2023-12-29T06:19:02;8.70;99.90
19044;DHT22;9654;52.302;8.120;2023-12-29T06:21:29;8.70;99.90
19044;DHT22;9654;52.302;8.120;2023-12-29T06:23:57;8.80;99.90
19044;DHT22;9654;52.302;8.120;2023-12-29T06:26:24;8.90;99.90
19044;DHT22;9654;52.302;8.120;2023-12-29T06:28:51;9.10;99.90
19044;DHT22;9654;52.302;8.120;2023-12-29T06:31:18;9.20;99.90
19044;DHT22;9654;52.302;8.120;2023-12-29T06:33:45;9.30;99.90
19044;DHT22;9654;52.302;8.120;2023-12-29T06:36:12;9.30;99.90
19044;DHT22;9654;52.302;8.120;2023-12-29T06:38:39;9.40;99.90
19044;DHT22;9654;52.302;8.120;2023-12-29T06:41:07;9.40;99.90
19044;DHT22;9654;52.302;8.120;2023-12-29T06:43:35;9.40;99.90
19044;DHT22;9654;52.302;8.120;2023-12-29T06:46:02;9.40;99.90
19044;DHT22;9654;52.302;8.120;2023-12-29T06:48:29;9.40;99.90
19044;DHT22;9654;52.302;8.120;2023-12-29T06:50:57;9.50;99.90
19044;DHT22;9654;52.302;8.120;2023-12-29T06:53:24;9.50;99.90
19044;DHT22;9654;52.302;8.120;2023-12-29T06:55:50;9.50;99.90
19044;DHT22;9654;52.302;8.120;2023-12-29T06:58:19;9.50;99.90
19044;DHT22;9654;52.302;8.120;2023-12-29T07:00:46;9.60;99.90
19044;DHT22;9654;52.302;8.120;2023-12-29T07:03:13;9.60;99.90
19044;DHT22;9654;52.302;8.120;2023-12-29T07:05:41;9.60;99.90
19044;DHT22;9654;52.302;8.120;2023-12-29T07:08:08;9.60;99.90
19044;DHT22;9654;52.302;8.120;2023-12-29T07:10:34;9.50;99.90
19044;DHT22;9654;52.302;8.120;2023-12-29T07:13:02;9.60;99.90
19044;DHT22;9654;52.302;8.120;2023-12-29T07:15:30;9.60;99.90
19044;DHT22;9654;52.302;8.120;2023-12-29T07:17:57;9.60;99.90
19044;DHT22;9654;52.302;8.120;2023-12-29T07:20:25;9.60;99.90
19044;DHT22;9654;52.302;8.120;2023-12-29T07:22:52;9.60;99.90
19044;DHT22;9654;52.302;8.120;2023-12-29T07:25:19;9.60;99.90
19044;DHT22;9654;52.302;8.120;2023-12-29T07:27:45;9.60;99.90
19044;DHT22;9654;52.302;8.120;2023-12-29T07:30:13;9.60;99.90
19044;DHT22;9654;52.302;8.120;2023-12-29T07:32:42;9.60;99.90
19044;DHT22;9654;52.302;8.120;2023-12-29T07:35:09;9.60;99.90
19044;DHT22;9654;52.302;8.120;2023-12-29T07:37:36;9.70;99.90
19044;DHT22;9654;52.302;8.120;2023-12-29T07:40:03;9.60;99.90
19044;DHT22;9654;52.302;8.120;2023-12-29T07:42:31;9.60;99.90
19044;DHT22;9654;52.302;8.120;2023-12-29T07:44:58;9.60;99.90
19044;DHT22;9654;52.302;8.120;2023-12-29T07:47:25;9.60;99.90
19044;DHT22;9654;52.302;8.120;2023-12-29T07:49:54;9.60;99.90
19044;DHT22;9654;52.302;8.120;2023-12-29T07:52:20;9.60;99.90
19044;DHT22;9654;52.302;8.120;2023-12-29T07:54:48;9.70;99.90
19044;DHT22;9654;52.302;8.120;2023-12-29T07:57:15;9.60;99.90
19044;DHT22;9654;52.302;8.120;2023-12-29T07:59:42;9.60;99.90
19044;DHT22;9654;52.302;8.120;2023-12-29T08:02:08;9.60;99.90
19044;DHT22;9654;52.302;8.120;2023-12-29T08:04:39;9.60;99.90
19044;DHT22;9654;52.302;8.120;2023-12-29T08:07:07;9.60;99.90
19044;DHT22;9654;52.302;8.120;2023-12-29T08:09:35;9.60;99.90
19044;DHT22;9654;52.302;8.120;2023-12-29T08:12:02;9.60;99.90
19044;DHT22;9654;52.302;8.120;2023-12-29T08:14:29;9.60;99.90
19044;DHT22;9654;52.302;8.120;2023-12-29T08:16:56;9.60;99.90
19044;DHT22;9654;52.302;8.120;2023-12-29T08:19:23;9.60;99.90
19044;DHT22;9654;52.302;8.120;2023-12-29T08:21:51;9.60;99.90
19044;DHT22;9654;52.302;8.120;2023-12-29T08:24:19;9.50;99.90
19044;DHT22;9654;52.302;8.120;2023-12-29T08:26:46;9.50;99.90
19044;DHT22;9654;52.302;8.120;2023-12-29T08:29:14;9.50;99.90
19044;DHT22;9654;52.302;8.120;2023-12-29T08:31:41;9.50;99.90
19044;DHT22;9654;52.302;8.120;2023-12-29T08:34:09;9.50;99.90
19044;DHT22;9654;52.302;8.120;2023-12-29T08:36:35;9.50;99.90
19044;DHT22;9654;52.302;8.120;2023-12-29T08:39:02;9.50;99.90
19044;DHT22;9654;52.302;8.120;2023-12-29T08:41:31;9.50;99.90
19044;DHT22;9654;52.302;8.120;2023-12-29T08:43:58;9.50;99.90
19044;DHT22;9654;52.302;8.120;2023-12-29T08:46:24;9.50;99.90
19044;DHT22;9654;52.302;8.120;2023-12-29T08:48:51;9.40;99.90
19044;DHT22;9654;52.302;8.120;2023-12-29T08:51:18;9.40;99.90
19044;DHT22;9654;52.302;8.120;2023-12-29T08:53:45;9.30;99.90
19044;DHT22;9654;52.302;8.120;2023-12-29T08:56:12;9.20;99.90
19044;DHT22;9654;52.302;8.120;2023-12-29T08:58:40;9.10;99.90
19044;DHT22;9654;52.302;8.120;2023-12-29T09:01:08;9.00;99.90
19044;DHT22;9654;52.302;8.120;2023-12-29T09:03:35;8.90;99.90
19044;DHT22;9654;52.302;8.120;2023-12-29T09:06:02;8.90;99.90
19044;DHT22;9654;52.302;8.120;2023-12-29T09:08:29;8.80;99.90
19044;DHT22;9654;52.302;8.120;2023-12-29T09:10:56;8.70;99.90
19044;DHT22;9654;52.302;8.120;2023-12-29T09:13:23;8.70;99.90
19044;DHT22;9654;52.302;8.120;2023-12-29T09:15:54;8.60;99.90
19044;DHT22;9654;52.302;8.120;2023-12-29T09:18:21;8.60;99.90
19044;DHT22;9654;52.302;8.120;2023-12-29T09:20:48;8.60;99.90
19044;DHT22;9654;52.302;8.120;2023-12-29T09:23:15;8.60;99.90
19044;DHT22;9654;52.302;8.120;2023-12-29T09:25:42;8.60;99.90
19044;DHT22;9654;52.302;8.120;2023-12-29T09:28:09;8.50;99.90
19044;DHT22;9654;52.302;8.120;2023-12-29T09:30:35;8.60;99.90
19044;DHT22;9654;52.302;8.120;2023-12-29T09:33:04;8.60;99.90
19044;DHT22;9654;52.302;8.120;2023-12-29T09:35:31;8.60;99.90
19044;DHT22;9654;52.302;8.120;2023-12-29T09:37:58;8.60;99.90
19044;DHT22;9654;52.302;8.120;2023-12-29T09:40:25;8.60;99.90
19044;DHT22;9654;52.302;8.120;2023-12-29T09:42:52;8.60;99.90
19044;DHT22;9654;52.302;8.120;2023-12-29T09:45:23;8.60;99.90
19044;DHT22;9654;52.302;8.120;2023-12-29T09:47:51;8.70;99.90
19044;DHT22;9654;52.302;8.120;2023-12-29T09:50:21;8.60;99.90
19044;DHT22;9654;52.302;8.120;2023-12-29T09:52:49;8.70;99.90
19044;DHT22;9654;52.302;8.120;2023-12-29T09:55:17;8.70;99.90
19044;DHT22;9654;52.302;8.120;2023-12-29T09:57:44;8.70;99.90
19044;DHT22;9654;52.302;8.120;2023-12-29T10:00:16;8.80;99.90
19044;DHT22;9654;52.302;8.120;2023-12-29T10:02:42;8.80;99.90
19044;DHT22;9654;52.302;8.120;2023-12-29T10:05:10;8.90;99.90
19044;DHT22;9654;52.302;8.120;2023-12-29T10:07:39;8.90;99.90
19044;DHT22;9654;52.302;8.120;2023-12-29T10:10:07;8.90;99.90
19044;DHT22;9654;52.302;8.120;2023-12-29T10:12:35;9.00;99.90
19044;DHT22;9654;52.302;8.120;2023-12-29T10:15:06;9.00;99.90
19044;DHT22;9654;52.302;8.120;2023-12-29T10:17:46;9.00;99.90
19044;DHT22;9654;52.302;8.120;2023-12-29T10:20:28;9.00;99.90
19044;DHT22;9654;52.302;8.120;2023-12-29T10:23:05;9.10;99.90
19044;DHT22;9654;52.302;8.120;2023-12-29T10:25:35;9.10;99.90
19044;DHT22;9654;52.302;8.120;2023-12-29T10:28:02;9.10;99.90
19044;DHT22;9654;52.302;8.120;2023-12-29T10:30:29;9.20;99.90
19044;DHT22;9654;52.302;8.120;2023-12-29T10:32:57;9.20;99.90
19044;DHT22;9654;52.302;8.120;2023-12-29T10:35:26;9.20;99.90
19044;DHT22;9654;52.302;8.120;2023-12-29T10:37:53;9.20;99.90
19044;DHT22;9654;52.302;8.120;2023-12-29T10:40:21;9.30;99.90
19044;DHT22;9654;52.302;8.120;2023-12-29T10:42:52;9.30;99.90
19044;DHT22;9654;52.302;8.120;2023-12-29T10:45:23;9.40;99.90
19044;DHT22;9654;52.302;8.120;2023-12-29T10:47:51;9.40;99.90
19044;DHT22;9654;52.302;8.120;2023-12-29T10:50:18;9.40;99.90
19044;DHT22;9654;52.302;8.120;2023-12-29T10:52:45;9.50;99.90
19044;DHT22;9654;52.302;8.120;2023-12-29T10:55:12;9.50;99.90
19044;DHT22;9654;52.302;8.120;2023-12-29T10:57:40;9.50;99.90
19044;DHT22;9654;52.302;8.120;2023-12-29T11:00:09;9.50;99.90
19044;DHT22;9654;52.302;8.120;2023-12-29T11:02:38;9.50;99.90
19044;DHT22;9654;52.302;8.120;2023-12-29T11:05:06;9.50;99.90
19044;DHT22;9654;52.302;8.120;2023-12-29T11:07:35;9.50;99.90
19044;DHT22;9654;52.302;8.120;2023-12-29T11:10:03;9.60;99.90
19044;DHT22;9654;52.302;8.120;2023-12-29T11:12:32;9.60;99.90
19044;DHT22;9654;52.302;8.120;2023-12-29T11:15:02;9.70;99.90
19044;DHT22;9654;52.302;8.120;2023-12-29T11:17:30;9.70;99.90
19044;DHT22;9654;52.302;8.120;2023-12-29T11:19:59;9.70;99.90
19044;DHT22;9654;52.302;8.120;2023-12-29T11:22:28;9.70;99.90
19044;DHT22;9654;52.302;8.120;2023-12-29T11:24:55;9.70;99.90
19044;DHT22;9654;52.302;8.120;2023-12-29T11:27:27;9.70;99.90
19044;DHT22;9654;52.302;8.120;2023-12-29T11:29:55;9.70;99.90
19044;DHT22;9654;52.302;8.120;2023-12-29T11:32:34;9.80;99.90
19044;DHT22;9654;52.302;8.120;2023-12-29T11:35:11;9.80;99.90
19044;DHT22;9654;52.302;8.120;2023-12-29T11:37:51;9.90;99.90
19044;DHT22;9654;52.302;8.120;2023-12-29T11:40:26;9.90;99.90
19044;DHT22;9654;52.302;8.120;2023-12-29T11:42:56;9.90;99.90
19044;DHT22;9654;52.302;8.120;2023-12-29T11:45:25;10.00;99.90
19044;DHT22;9654;52.302;8.120;2023-12-29T11:47:54;10.00;99.90
19044;DHT22;9654;52.302;8.120;2023-12-29T11:50:29;10.00;99.90
19044;DHT22;9654;52.302;8.120;2023-12-29T11:52:57;10.00;99.90
19044;DHT22;9654;52.302;8.120;2023-12-29T11:55:29;10.00;99.90
19044;DHT22;9654;52.302;8.120;2023-12-29T11:57:56;10.00;99.90
19044;DHT22;9654;52.302;8.120;2023-12-29T12:00:45;10.10;99.90
19044;DHT22;9654;52.302;8.120;2023-12-29T12:03:24;10.10;99.90
19044;DHT22;9654;52.302;8.120;2023-12-29T12:05:52;10.10;99.90
19044;DHT22;9654;52.302;8.120;2023-12-29T12:08:33;10.10;99.90
19044;DHT22;9654;52.302;8.120;2023-12-29T12:14:05;10.10;99.90
19044;DHT22;9654;52.302;8.120;2023-12-29T12:16:47;10.10;99.90
19044;DHT22;9654;52.302;8.120;2023-12-29T12:19:17;10.10;99.90
19044;DHT22;9654;52.302;8.120;2023-12-29T12:21:47;10.10;99.90
19044;DHT22;9654;52.302;8.120;2023-12-29T12:24:18;10.10;99.90
19044;DHT22;9654;52.302;8.120;2023-12-29T12:26:45;10.20;99.90
19044;DHT22;9654;52.302;8.120;2023-12-29T12:29:14;10.20;99.90
19044;DHT22;9654;52.302;8.120;2023-12-29T12:31:52;10.20;99.90
19044;DHT22;9654;52.302;8.120;2023-12-29T12:34:20;10.20;99.90
19044;DHT22;9654;52.302;8.120;2023-12-29T12:36:51;10.20;99.90
19044;DHT22;9654;52.302;8.120;2023-12-29T12:39:18;10.30;99.90
19044;DHT22;9654;52.302;8.120;2023-12-29T12:41:45;10.30;99.90
19044;DHT22;9654;52.302;8.120;2023-12-29T12:44:13;10.30;99.90
19044;DHT22;9654;52.302;8.120;2023-12-29T12:46:44;10.30;99.90
19044;DHT22;9654;52.302;8.120;2023-12-29T12:49:11;10.30;99.90
19044;DHT22;9654;52.302;8.120;2023-12-29T12:51:40;10.30;99.90
19044;DHT22;9654;52.302;8.120;2023-12-29T12:54:07;10.40;99.90
19044;DHT22;9654;52.302;8.120;2023-12-29T12:56:35;10.40;99.90
19044;DHT22;9654;52.302;8.120;2023-12-29T12:59:02;10.40;99.90
19044;DHT22;9654;52.302;8.120;2023-12-29T13:01:34;10.40;99.90
19044;DHT22;9654;52.302;8.120;2023-12-29T13:04:03;10.40;99.90
19044;DHT22;9654;52.302;8.120;2023-12-29T13:06:31;10.40;99.90
19044;DHT22;9654;52.302;8.120;2023-12-29T13:09:00;10.40;99.90
19044;DHT22;9654;52.302;8.120;2023-12-29T13:11:28;10.40;99.90
19044;DHT22;9654;52.302;8.120;2023-12-29T13:13:55;10.40;99.90
19044;DHT22;9654;52.302;8.120;2023-12-29T13:16:30;10.40;99.90
19044;DHT22;9654;52.302;8.120;2023-12-29T13:19:15;10.40;99.90
19044;DHT22;9654;52.302;8.120;2023-12-29T13:21:48;10.40;99.90
19044;DHT22;9654;52.302;8.120;2023-12-29T13:24:17;10.40;99.90
19044;DHT22;9654;52.302;8.120;2023-12-29T13:26:44;10.40;99.90
19044;DHT22;9654;52.302;8.120;2023-12-29T13:29:13;10.40;99.90
19044;DHT22;9654;52.302;8.120;2023-12-29T13:31:41;10.40;99.90
19044;DHT22;9654;52.302;8.120;2023-12-29T13:34:14;10.40;99.90
19044;DHT22;9654;52.302;8.120;2023-12-29T13:36:49;10.40;99.90
19044;DHT22;9654;52.302;8.120;2023-12-29T13:39:23;10.30;99.90
19044;DHT22;9654;52.302;8.120;2023-12-29T13:41:51;10.40;99.90
19044;DHT22;9654;52.302;8.120;2023-12-29T13:44:19;10.40;99.90
19044;DHT22;9654;52.302;8.120;2023-12-29T13:46:47;10.40;99.90
19044;DHT22;9654;52.302;8.120;2023-12-29T13:49:15;10.40;99.90
19044;DHT22;9654;52.302;8.120;2023-12-29T13:51:43;10.30;99.90
19044;DHT22;9654;52.302;8.120;2023-12-29T13:54:10;10.30;99.90
19044;DHT22;9654;52.302;8.120;2023-12-29T13:56:39;10.30;99.90
19044;DHT22;9654;52.302;8.120;2023-12-29T13:59:17;10.30;99.90
19044;DHT22;9654;52.302;8.120;2023-12-29T14:01:44;10.30;99.90
19044;DHT22;9654;52.302;8.120;2023-12-29T14:04:11;10.30;99.90
19044;DHT22;9654;52.302;8.120;2023-12-29T14:06:41;10.30;99.90
19044;DHT22;9654;52.302;8.120;2023-12-29T14:09:14;10.30;99.90
19044;DHT22;9654;52.302;8.120;2023-12-29T14:11:45;10.30;99.90
19044;DHT22;9654;52.302;8.120;2023-12-29T14:14:12;10.20;99.90
19044;DHT22;9654;52.302;8.120;2023-12-29T14:16:39;10.30;99.90
19044;DHT22;9654;52.302;8.120;2023-12-29T14:19:06;10.20;99.90
19044;DHT22;9654;52.302;8.120;2023-12-29T14:21:34;10.30;99.90
19044;DHT22;9654;52.302;8.120;2023-12-29T14:24:08;10.20;99.90
19044;DHT22;9654;52.302;8.120;2023-12-29T14:26:35;10.30;99.90
19044;DHT22;9654;52.302;8.120;2023-12-29T14:29:05;10.20;99.90
19044;DHT22;9654;52.302;8.120;2023-12-29T14:31:35;10.20;99.90
19044;DHT22;9654;52.302;8.120;2023-12-29T14:34:03;10.20;99.90
19044;DHT22;9654;52.302;8.120;2023-12-29T14:36:30;10.30;99.90
19044;DHT22;9654;52.302;8.120;2023-12-29T14:38:57;10.20;99.90
19044;DHT22;9654;52.302;8.120;2023-12-29T14:41:24;10.20;99.90
19044;DHT22;9654;52.302;8.120;2023-12-29T14:43:51;10.20;99.90
19044;DHT22;9654;52.302;8.120;2023-12-29T14:46:19;10.10;99.90
19044;DHT22;9654;52.302;8.120;2023-12-29T14:48:46;10.10;99.90
19044;DHT22;9654;52.302;8.120;2023-12-29T14:51:13;10.10;99.90
19044;DHT22;9654;52.302;8.120;2023-12-29T14:53:42;10.00;99.90
19044;DHT22;9654;52.302;8.120;2023-12-29T14:56:09;10.10;99.90
19044;DHT22;9654;52.302;8.120;2023-12-29T14:58:36;10.00;99.90
19044;DHT22;9654;52.302;8.120;2023-12-29T15:01:03;10.00;99.90
19044;DHT22;9654;52.302;8.120;2023-12-29T15:03:31;10.00;99.90
19044;DHT22;9654;52.302;8.120;2023-12-29T15:05:58;10.00;99.90
19044;DHT22;9654;52.302;8.120;2023-12-29T15:08:25;10.00;99.90
19044;DHT22;9654;52.302;8.120;2023-12-29T15:10:57;9.90;99.90
19044;DHT22;9654;52.302;8.120;2023-12-29T15:13:24;9.90;26.70
19044;DHT22;9654;52.302;8.120;2023-12-29T15:15:52;9.90;5.40
19044;DHT22;9654;52.302;8.120;2023-12-29T15:18:19;9.80;1.00
19044;DHT22;9654;52.302;8.120;2023-12-29T15:20:47;9.80;9.50
19044;DHT22;9654;52.302;8.120;2023-12-29T15:23:14;9.80;10.00
19044;DHT22;9654;52.302;8.120;2023-12-29T15:25:43;9.80;17.00
19044;DHT22;9654;52.302;8.120;2023-12-29T15:28:10;9.80;37.60
19044;DHT22;9654;52.302;8.120;2023-12-29T15:30:37;9.70;64.50
19044;DHT22;9654;52.302;8.120;2023-12-29T15:33:04;9.70;82.80
19044;DHT22;9654;52.302;8.120;2023-12-29T15:35:31;9.70;93.10
19044;DHT22;9654;52.302;8.120;2023-12-29T15:37:59;9.70;99.90
19044;DHT22;9654;52.302;8.120;2023-12-29T15:40:26;9.70;99.90
19044;DHT22;9654;52.302;8.120;2023-12-29T15:42:53;9.70;99.90
19044;DHT22;9654;52.302;8.120;2023-12-29T15:45:21;9.70;99.90
19044;DHT22;9654;52.302;8.120;2023-12-29T15:47:48;9.70;99.90
19044;DHT22;9654;52.302;8.120;2023-12-29T15:50:15;9.70;99.90
19044;DHT22;9654;52.302;8.120;2023-12-29T15:52:42;9.70;99.90
19044;DHT22;9654;52.302;8.120;2023-12-29T15:55:10;9.70;99.90
19044;DHT22;9654;52.302;8.120;2023-12-29T15:57:37;9.70;99.90
19044;DHT22;9654;52.302;8.120;2023-12-29T16:00:05;9.60;99.90
19044;DHT22;9654;52.302;8.120;2023-12-29T16:02:33;9.60;99.90
19044;DHT22;9654;52.302;8.120;2023-12-29T16:05:00;9.60;99.90